createdAt,value
2017-07-26T00:00:18.754Z,21.60
2017-07-26T00:02:46.233Z,27.53
2017-07-26T00:05:13.742Z,14.93
2017-07-26T00:07:41.197Z,14.07
2017-07-26T00:10:08.659Z,28.10
2017-07-26T00:12:36.145Z,29.60
2017-07-26T00:15:03.612Z,30.90
2017-07-26T00:17:31.112Z,26.57
2017-07-26T00:19:58.675Z,14.47
2017-07-26T00:22:26.134Z,14.63
2017-07-26T00:24:53.586Z,15.03
2017-07-26T00:27:21.113Z,17.67
2017-07-26T00:29:48.578Z,21.70
2017-07-26T00:32:16.035Z,16.97
2017-07-26T00:34:43.522Z,17.80
2017-07-26T00:37:10.986Z,16.07
2017-07-26T00:39:39.214Z,27.90
2017-07-26T00:42:06.714Z,25.33
2017-07-26T00:44:34.162Z,18.67
2017-07-26T00:47:01.622Z,17.37
2017-07-26T00:49:29.182Z,16.97
2017-07-26T00:51:56.643Z,21.50
2017-07-26T00:54:24.112Z,24.50
2017-07-26T00:56:51.598Z,26.33
2017-07-26T00:59:19.062Z,13.90
2017-07-26T01:01:46.565Z,16.80
2017-07-26T01:04:14.018Z,16.63
2017-07-26T01:06:41.479Z,16.80
2017-07-26T01:09:08.954Z,21.43
2017-07-26T01:11:36.492Z,16.30
2017-07-26T01:14:03.986Z,24.77
2017-07-26T01:16:31.465Z,14.30
2017-07-26T01:18:58.918Z,24.30
2017-07-26T01:21:26.394Z,24.60
2017-07-26T01:23:53.914Z,25.23
2017-07-26T01:26:21.386Z,19.90
2017-07-26T01:28:49.645Z,13.60
2017-07-26T01:31:17.098Z,22.67
2017-07-26T01:33:44.553Z,14.93
2017-07-26T01:36:12.038Z,21.80
2017-07-26T01:38:40.258Z,17.30
2017-07-26T01:41:07.706Z,22.40
2017-07-26T01:43:35.177Z,12.37
2017-07-26T01:46:02.633Z,30.27
2017-07-26T01:48:30.196Z,12.07
2017-07-26T01:50:57.650Z,13.60
2017-07-26T01:53:25.134Z,16.33
2017-07-26T01:55:52.589Z,25.13
2017-07-26T01:58:20.180Z,24.37
2017-07-26T02:00:48.409Z,20.80
2017-07-26T02:03:15.874Z,21.03
2017-07-26T02:05:43.351Z,23.03
2017-07-26T02:08:10.914Z,17.40
2017-07-26T02:10:38.375Z,24.03
2017-07-26T02:13:05.871Z,22.97
2017-07-26T02:15:33.321Z,24.77
2017-07-26T02:18:00.796Z,19.27
2017-07-26T02:20:28.273Z,23.53
2017-07-26T02:22:55.722Z,20.57
2017-07-26T02:25:23.215Z,21.07
2017-07-26T02:27:50.750Z,28.87
2017-07-26T02:30:18.217Z,17.47
2017-07-26T02:32:45.706Z,19.40
2017-07-26T02:35:13.157Z,24.67
2017-07-26T02:37:40.617Z,25.67
2017-07-26T02:40:08.085Z,22.70
2017-07-26T02:42:35.628Z,23.43
2017-07-26T02:45:03.081Z,29.77
2017-07-26T02:47:30.567Z,18.70
2017-07-26T02:49:58.789Z,24.00
2017-07-26T02:52:26.251Z,18.33
2017-07-26T02:54:53.741Z,27.50
2017-07-26T02:57:21.200Z,22.50
2017-07-26T02:59:48.665Z,26.37
2017-07-26T03:02:16.933Z,31.90
2017-07-26T03:04:44.385Z,17.90
2017-07-26T03:07:11.842Z,22.33
2017-07-26T03:09:39.382Z,21.93
2017-07-26T03:12:06.852Z,26.70
2017-07-26T03:14:34.444Z,17.90
2017-07-26T03:17:01.951Z,36.47
2017-07-26T03:19:29.434Z,28.20
2017-07-26T03:21:56.916Z,31.70
2017-07-26T03:24:24.382Z,29.70
2017-07-26T03:26:51.869Z,61.10
2017-07-26T03:29:19.334Z,27.30
2017-07-26T03:31:46.802Z,23.70
2017-07-26T03:34:14.282Z,35.43
2017-07-26T03:36:41.742Z,26.87
2017-07-26T03:39:09.301Z,36.73
2017-07-26T03:41:36.760Z,46.70
2017-07-26T03:44:04.226Z,27.63
2017-07-26T03:46:31.706Z,28.27
2017-07-26T03:48:59.167Z,32.83
2017-07-26T03:51:26.654Z,19.23
2017-07-26T03:53:54.111Z,25.97
2017-07-26T03:56:21.570Z,33.27
2017-07-26T03:58:49.065Z,32.23
2017-07-26T04:01:16.523Z,32.37
2017-07-26T04:03:43.991Z,29.17
2017-07-26T04:06:11.485Z,32.27
2017-07-26T04:08:38.966Z,44.17
2017-07-26T04:11:06.430Z,39.00
2017-07-26T04:13:33.922Z,39.47
2017-07-26T04:16:01.386Z,27.10
2017-07-26T04:18:28.878Z,27.33
2017-07-26T04:20:56.343Z,34.90
2017-07-26T04:23:23.819Z,35.43
2017-07-26T04:25:51.297Z,35.17
2017-07-26T04:28:18.753Z,38.17
2017-07-26T04:30:46.219Z,24.30
2017-07-26T04:33:13.709Z,34.90
2017-07-26T04:35:41.942Z,36.47
2017-07-26T04:38:09.403Z,28.37
2017-07-26T04:40:36.897Z,27.93
2017-07-26T04:43:05.116Z,35.57
2017-07-26T04:45:32.621Z,30.47
2017-07-26T04:48:00.083Z,32.40
2017-07-26T04:50:27.539Z,44.37
2017-07-26T04:52:55.059Z,30.03
2017-07-26T04:55:22.550Z,27.63
2017-07-26T04:57:50.144Z,35.10
2017-07-26T05:00:17.642Z,31.20
2017-07-26T05:02:45.143Z,30.03
2017-07-26T05:05:12.629Z,23.00
2017-07-26T05:07:40.123Z,23.60
2017-07-26T05:10:07.709Z,27.60
2017-07-26T05:12:35.191Z,25.20
2017-07-26T05:15:02.664Z,31.90
2017-07-26T05:17:30.146Z,31.33
2017-07-26T05:19:57.603Z,21.30
2017-07-26T05:22:25.052Z,26.37
2017-07-26T05:24:52.573Z,39.37
2017-07-26T05:27:21.027Z,35.63
2017-07-26T05:29:48.663Z,30.67
2017-07-26T05:32:16.376Z,39.27
2017-07-26T05:34:44.637Z,32.87
2017-07-26T05:37:12.109Z,34.67
2017-07-26T05:39:39.595Z,23.40
2017-07-26T05:42:07.041Z,24.80
2017-07-26T05:44:34.524Z,23.60
2017-07-26T05:47:01.994Z,21.10
2017-07-26T05:49:29.498Z,18.97
2017-07-26T05:51:56.966Z,26.23
2017-07-26T05:54:24.449Z,21.33
2017-07-26T05:56:51.921Z,19.87
2017-07-26T05:59:19.379Z,32.73
2017-07-26T06:01:46.853Z,21.37
2017-07-26T06:04:14.347Z,28.53
2017-07-26T06:06:41.807Z,28.03
2017-07-26T06:09:09.260Z,26.17
2017-07-26T06:11:36.732Z,19.43
2017-07-26T06:14:04.201Z,23.47
2017-07-26T06:16:32.454Z,17.43
2017-07-26T06:18:59.913Z,15.60
2017-07-26T06:21:27.393Z,31.33
2017-07-26T06:23:55.645Z,19.27
2017-07-26T06:26:23.141Z,16.40
2017-07-26T06:28:50.611Z,19.73
2017-07-26T06:31:18.061Z,18.33
2017-07-26T06:33:45.553Z,18.70
2017-07-26T06:36:13.039Z,15.70
2017-07-26T06:38:40.494Z,22.93
2017-07-26T06:41:07.994Z,28.20
2017-07-26T06:43:35.458Z,20.63
2017-07-26T06:46:02.905Z,26.53
2017-07-26T06:48:30.385Z,15.30
2017-07-26T06:50:57.841Z,13.17
2017-07-26T06:53:25.347Z,11.60
2017-07-26T06:55:52.815Z,26.80
2017-07-26T06:58:20.319Z,18.77
2017-07-26T07:00:47.815Z,12.93
2017-07-26T07:03:15.262Z,10.37
2017-07-26T07:05:42.713Z,7.23
2017-07-26T07:08:10.187Z,7.10
2017-07-26T07:10:37.634Z,15.53
2017-07-26T07:13:05.118Z,14.17
2017-07-26T07:15:32.565Z,18.93
2017-07-26T07:18:00.030Z,13.97
2017-07-26T07:20:27.500Z,14.70
2017-07-26T07:22:54.981Z,13.10
2017-07-26T07:25:22.433Z,19.73
2017-07-26T07:27:49.947Z,15.00
2017-07-26T07:30:17.409Z,15.13
2017-07-26T07:32:44.906Z,10.27
2017-07-26T07:35:12.362Z,16.73
2017-07-26T07:37:40.574Z,19.60
2017-07-26T07:40:08.050Z,16.07
2017-07-26T07:42:35.507Z,13.13
2017-07-26T07:45:02.982Z,11.73
2017-07-26T07:47:30.458Z,16.20
2017-07-26T07:49:58.802Z,16.90
2017-07-26T07:52:26.262Z,13.80
2017-07-26T07:54:53.713Z,14.10
2017-07-26T07:57:21.185Z,19.90
2017-07-26T07:59:48.629Z,26.90
2017-07-26T08:02:16.121Z,14.97
2017-07-26T08:04:43.574Z,14.53
2017-07-26T08:07:11.030Z,17.40
2017-07-26T08:09:38.525Z,11.10
2017-07-26T08:12:05.986Z,11.17
2017-07-26T08:14:33.439Z,9.07
2017-07-26T08:17:00.910Z,14.50
2017-07-26T08:19:28.366Z,12.40
2017-07-26T08:21:55.842Z,12.37
2017-07-26T08:24:23.297Z,11.43
2017-07-26T08:26:50.786Z,18.43
2017-07-26T08:29:18.238Z,8.97
2017-07-26T08:31:45.690Z,10.53
2017-07-26T08:34:13.258Z,8.40
2017-07-26T08:36:40.749Z,12.53
2017-07-26T08:39:08.210Z,13.80
2017-07-26T08:41:35.656Z,11.57
2017-07-26T08:44:03.143Z,8.27
2017-07-26T08:46:30.601Z,15.77
2017-07-26T08:48:58.052Z,11.47
2017-07-26T08:51:25.542Z,22.90
2017-07-26T08:53:52.986Z,14.83
2017-07-26T08:56:20.462Z,15.30
2017-07-26T08:58:47.918Z,12.70
2017-07-26T09:01:15.399Z,14.53
2017-07-26T09:03:42.882Z,17.87
2017-07-26T09:06:11.108Z,7.17
2017-07-26T09:08:38.558Z,13.50
2017-07-26T09:11:06.035Z,11.43
2017-07-26T09:13:33.506Z,12.10
2017-07-26T09:16:00.966Z,11.60
2017-07-26T09:18:28.521Z,8.40
2017-07-26T09:20:55.970Z,9.67
2017-07-26T09:23:23.426Z,6.40
2017-07-26T09:25:50.905Z,11.90
2017-07-26T09:28:18.358Z,11.10
2017-07-26T09:30:45.812Z,6.90
2017-07-26T09:33:13.289Z,10.60
2017-07-26T09:35:41.545Z,11.43
2017-07-26T09:38:09.003Z,11.53
2017-07-26T09:40:36.457Z,6.93
2017-07-26T09:43:03.932Z,10.70
2017-07-26T09:45:31.481Z,8.47
2017-07-26T09:47:58.942Z,11.60
2017-07-26T09:50:26.430Z,7.23
2017-07-26T09:52:53.886Z,6.57
2017-07-26T09:55:21.337Z,4.83
2017-07-26T09:57:48.814Z,7.23
2017-07-26T10:00:16.269Z,9.90
2017-07-26T10:02:43.764Z,6.57
2017-07-26T10:05:11.218Z,10.13
2017-07-26T10:07:38.675Z,8.20
2017-07-26T10:10:06.270Z,15.70
2017-07-26T10:12:33.720Z,18.43
2017-07-26T10:15:01.185Z,12.60
2017-07-26T10:17:28.682Z,11.70
2017-07-26T10:19:56.154Z,11.17
2017-07-26T10:22:23.608Z,9.73
2017-07-26T10:24:51.101Z,13.57
2017-07-26T10:27:18.598Z,10.50
2017-07-26T10:29:46.811Z,12.00
2017-07-26T10:32:14.306Z,6.77
2017-07-26T10:34:41.763Z,8.13
2017-07-26T10:37:09.250Z,6.33
2017-07-26T10:39:37.601Z,6.13
2017-07-26T10:42:05.071Z,5.63
2017-07-26T10:44:32.530Z,4.60
2017-07-26T10:47:00.026Z,5.90
2017-07-26T10:49:27.482Z,8.60
2017-07-26T10:51:54.943Z,7.97
2017-07-26T10:54:22.418Z,10.60
2017-07-26T10:56:49.865Z,6.03
2017-07-26T10:59:17.370Z,9.80
2017-07-26T11:01:44.830Z,9.80
2017-07-26T11:04:12.287Z,7.80
2017-07-26T11:06:39.761Z,11.53
2017-07-26T11:09:08.122Z,9.53
2017-07-26T11:11:35.577Z,14.77
2017-07-26T11:14:03.034Z,9.57
2017-07-26T11:16:30.510Z,11.30
2017-07-26T11:18:57.964Z,10.30
2017-07-26T11:21:25.449Z,8.23
2017-07-26T11:23:52.900Z,10.77
2017-07-26T11:26:20.352Z,15.87
2017-07-26T11:28:47.851Z,15.63
2017-07-26T11:31:15.298Z,12.07
2017-07-26T11:33:42.762Z,10.50
2017-07-26T11:36:10.243Z,7.10
2017-07-26T11:38:37.810Z,7.83
2017-07-26T11:41:05.283Z,8.80
2017-07-26T11:43:32.732Z,7.33
2017-07-26T11:46:00.205Z,10.20
2017-07-26T11:48:27.678Z,25.17
2017-07-26T11:50:55.158Z,11.30
2017-07-26T11:53:22.614Z,10.67
2017-07-26T11:55:50.089Z,13.77
2017-07-26T11:58:17.546Z,16.90
2017-07-26T12:00:45.042Z,10.63
2017-07-26T12:03:12.497Z,15.43
2017-07-26T12:05:39.965Z,9.33
2017-07-26T12:08:07.417Z,7.63
2017-07-26T12:10:34.901Z,6.50
2017-07-26T12:13:03.950Z,10.17
2017-07-26T12:15:31.510Z,10.63
2017-07-26T12:17:59.005Z,11.23
2017-07-26T12:20:30.418Z,8.43
2017-07-26T12:22:58.142Z,5.00
2017-07-26T12:25:25.630Z,14.20
2017-07-26T12:27:53.125Z,11.07
2017-07-26T12:30:20.596Z,9.27
2017-07-26T12:32:48.096Z,15.27
2017-07-26T12:35:15.620Z,19.67
2017-07-26T12:37:43.081Z,10.50
2017-07-26T12:40:10.525Z,31.07
2017-07-26T12:42:38.014Z,13.20
2017-07-26T12:45:05.489Z,8.10
2017-07-26T12:47:32.963Z,10.90
2017-07-26T12:50:00.552Z,13.83
2017-07-26T12:52:28.006Z,8.30
2017-07-26T12:54:55.635Z,12.27
2017-07-26T12:57:23.113Z,12.30
2017-07-26T12:59:51.053Z,10.30
2017-07-26T13:02:18.912Z,11.03
2017-07-26T13:04:46.491Z,8.40
2017-07-26T13:07:14.313Z,10.37
2017-07-26T13:09:42.029Z,19.63
2017-07-26T13:12:09.530Z,11.27
2017-07-26T13:14:37.257Z,10.97
2017-07-26T13:17:04.831Z,21.40
2017-07-26T13:19:32.742Z,11.97
2017-07-26T13:22:00.525Z,9.30
2017-07-26T13:24:28.014Z,6.63
2017-07-26T13:26:55.722Z,10.97
2017-07-26T13:29:23.337Z,5.83
2017-07-26T13:31:50.941Z,8.57
2017-07-26T13:34:18.688Z,5.20
2017-07-26T13:36:46.473Z,6.37
2017-07-26T13:39:14.132Z,11.33
2017-07-26T13:41:41.698Z,7.27
2017-07-26T13:44:09.310Z,4.77
2017-07-26T13:46:36.905Z,17.67
2017-07-26T13:49:04.477Z,6.73
2017-07-26T13:51:32.173Z,6.30
2017-07-26T13:53:59.769Z,4.67
2017-07-26T13:56:27.289Z,6.13
2017-07-26T13:58:54.745Z,9.57
2017-07-26T14:01:22.201Z,13.17
2017-07-26T14:03:49.690Z,10.03
2017-07-26T14:06:17.144Z,9.47
2017-07-26T14:08:44.631Z,5.60
2017-07-26T14:11:12.129Z,3.93
2017-07-26T14:13:39.569Z,6.47
2017-07-26T14:16:07.028Z,3.03
2017-07-26T14:18:34.493Z,4.33
2017-07-26T14:21:01.986Z,6.50
2017-07-26T14:23:29.443Z,4.73
2017-07-26T14:25:56.897Z,3.70
2017-07-26T14:28:24.393Z,5.00
2017-07-26T14:30:51.842Z,9.87
2017-07-26T14:33:19.298Z,14.43
2017-07-26T14:35:46.781Z,4.70
2017-07-26T14:38:14.231Z,3.83
2017-07-26T14:40:41.692Z,3.30
2017-07-26T14:43:09.154Z,11.87
2017-07-26T14:45:36.625Z,3.17
2017-07-26T14:48:04.074Z,4.40
2017-07-26T14:50:31.554Z,3.10
2017-07-26T14:52:59.016Z,4.30
2017-07-26T14:55:26.469Z,2.40
2017-07-26T14:57:53.943Z,5.63
2017-07-26T15:00:21.422Z,4.50
2017-07-26T15:02:48.872Z,2.30
2017-07-26T15:05:16.327Z,5.40
2017-07-26T15:07:43.813Z,2.90
2017-07-26T15:10:11.265Z,2.33
2017-07-26T15:12:38.769Z,2.83
2017-07-26T15:15:06.258Z,2.00
2017-07-26T15:17:33.728Z,1.50
2017-07-26T15:20:01.269Z,4.23
2017-07-26T15:22:28.753Z,2.23
2017-07-26T15:24:56.244Z,2.50
2017-07-26T15:27:23.697Z,2.70
2017-07-26T15:29:51.158Z,4.30
2017-07-26T15:32:18.642Z,3.50
2017-07-26T15:34:46.106Z,3.20
2017-07-26T15:37:13.562Z,2.93
2017-07-26T15:39:41.062Z,3.10
2017-07-26T15:42:08.534Z,3.87
2017-07-26T15:44:36.002Z,3.70
2017-07-26T15:47:03.472Z,3.37
2017-07-26T15:49:30.961Z,3.30
2017-07-26T15:51:58.442Z,3.30
2017-07-26T15:54:25.962Z,3.30
2017-07-26T15:56:53.458Z,8.47
2017-07-26T15:59:20.922Z,3.87
2017-07-26T16:01:48.381Z,2.77
2017-07-26T16:04:15.861Z,4.33
2017-07-26T16:06:43.360Z,4.87
2017-07-26T16:09:10.826Z,3.13
2017-07-26T16:11:38.293Z,4.80
2017-07-26T16:14:05.774Z,5.60
2017-07-26T16:16:33.230Z,6.50
2017-07-26T16:19:00.718Z,3.10
2017-07-26T16:21:28.202Z,11.30
2017-07-26T16:23:55.680Z,3.37
2017-07-26T16:26:23.138Z,4.63
2017-07-26T16:28:50.627Z,4.00
2017-07-26T16:31:18.070Z,5.50
2017-07-26T16:33:45.521Z,11.77
2017-07-26T16:36:12.991Z,5.70
2017-07-26T16:38:40.451Z,11.50
2017-07-26T16:41:07.969Z,6.40
2017-07-26T16:43:36.189Z,7.50
2017-07-26T16:46:03.642Z,7.77
2017-07-26T16:48:31.505Z,20.07
2017-07-26T16:50:59.033Z,7.20
2017-07-26T16:53:26.493Z,7.37
2017-07-26T16:55:53.974Z,10.60
2017-07-26T16:58:21.445Z,6.90
2017-07-26T17:00:48.982Z,6.70
2017-07-26T17:03:16.438Z,10.87
2017-07-26T17:05:43.890Z,10.10
2017-07-26T17:08:11.381Z,6.27
2017-07-26T17:10:38.829Z,13.37
2017-07-26T17:13:06.282Z,12.30
2017-07-26T17:15:33.783Z,10.47
2017-07-26T17:18:01.237Z,11.10
2017-07-26T17:20:28.700Z,12.70
2017-07-26T17:22:56.181Z,10.03
2017-07-26T17:25:23.670Z,10.30
2017-07-26T17:27:51.130Z,12.23
2017-07-26T17:30:18.592Z,9.90
2017-07-26T17:32:46.040Z,10.10
2017-07-26T17:35:13.517Z,9.80
2017-07-26T17:37:40.975Z,9.00
2017-07-26T17:40:08.525Z,10.67
2017-07-26T17:42:36.000Z,14.07
2017-07-26T17:45:03.446Z,11.60
2017-07-26T17:47:30.897Z,19.80
2017-07-26T17:49:58.384Z,11.53
2017-07-26T17:52:26.199Z,9.80
2017-07-26T17:54:53.850Z,9.97
2017-07-26T17:57:22.086Z,9.50
2017-07-26T17:59:50.536Z,10.13
2017-07-26T18:02:18.032Z,9.00
2017-07-26T18:04:45.673Z,6.83
2017-07-26T18:07:14.484Z,9.90
2017-07-26T18:09:42.097Z,8.80
2017-07-26T18:12:09.729Z,13.47
2017-07-26T18:14:37.316Z,8.63
2017-07-26T18:17:04.952Z,23.63
2017-07-26T18:19:32.518Z,7.83
2017-07-26T18:22:00.007Z,8.27
2017-07-26T18:24:27.493Z,8.70
2017-07-26T18:26:55.089Z,15.90
2017-07-26T18:29:22.574Z,9.97
2017-07-26T18:31:50.059Z,8.93
2017-07-26T18:34:17.525Z,9.87
2017-07-26T18:36:45.039Z,5.70
2017-07-26T18:39:12.550Z,7.10
2017-07-26T18:41:40.163Z,11.87
2017-07-26T18:44:07.678Z,12.47
2017-07-26T18:46:35.125Z,6.70
2017-07-26T18:49:02.566Z,5.43
2017-07-26T18:51:30.042Z,11.33
2017-07-26T18:53:57.537Z,10.02
2017-07-26T18:56:24.989Z,9.23
2017-07-26T18:58:52.449Z,9.23
2017-07-26T19:01:19.932Z,7.90
2017-07-26T19:03:47.371Z,6.90
2017-07-26T19:06:14.852Z,6.33
2017-07-26T19:08:42.429Z,6.43
2017-07-26T19:11:09.916Z,5.53
2017-07-26T19:13:37.374Z,6.63
2017-07-26T19:16:04.834Z,9.53
2017-07-26T19:18:32.309Z,12.27
2017-07-26T19:20:59.814Z,7.57
2017-07-26T19:23:27.326Z,6.30
2017-07-26T19:25:54.858Z,5.90
2017-07-26T19:28:22.665Z,12.07
2017-07-26T19:30:50.335Z,11.73
2017-07-26T19:33:17.953Z,7.70
2017-07-26T19:35:45.662Z,8.43
2017-07-26T19:38:13.254Z,11.33
2017-07-26T19:40:41.016Z,9.73
2017-07-26T19:43:08.744Z,15.10
2017-07-26T19:45:36.409Z,10.90
2017-07-26T19:48:04.103Z,8.30
2017-07-26T19:50:31.736Z,14.90
2017-07-26T19:52:59.389Z,12.77
2017-07-26T19:55:27.067Z,8.40
2017-07-26T19:57:54.653Z,6.13
2017-07-26T20:00:22.659Z,7.73
2017-07-26T20:02:51.613Z,6.10
2017-07-26T20:05:19.337Z,5.80
2017-07-26T20:07:47.538Z,15.30
2017-07-26T20:10:15.173Z,11.50
2017-07-26T20:12:43.080Z,6.33
2017-07-26T20:15:10.667Z,11.10
2017-07-26T20:17:38.320Z,7.73
2017-07-26T20:20:06.086Z,10.03
2017-07-26T20:22:33.606Z,12.87
2017-07-26T20:25:01.310Z,6.93
2017-07-26T20:27:28.878Z,7.37
2017-07-26T20:29:56.435Z,21.60
2017-07-26T20:32:24.498Z,7.57
2017-07-26T20:34:52.035Z,8.17
2017-07-26T20:37:20.233Z,10.80
2017-07-26T20:39:47.745Z,8.13
2017-07-26T20:42:15.210Z,9.27
2017-07-26T20:44:43.434Z,7.97
2017-07-26T20:47:10.899Z,10.30
2017-07-26T20:49:38.407Z,9.67
2017-07-26T20:52:05.897Z,10.03
2017-07-26T20:54:33.342Z,8.20
2017-07-26T20:57:00.799Z,20.47
2017-07-26T20:59:28.322Z,10.47
2017-07-26T21:01:56.215Z,10.10
2017-07-26T21:04:23.705Z,9.60
2017-07-26T21:06:51.186Z,8.07
2017-07-26T21:09:18.642Z,7.93
2017-07-26T21:11:46.120Z,7.50
2017-07-26T21:14:13.662Z,8.30
2017-07-26T21:16:41.137Z,9.43
2017-07-26T21:19:08.603Z,15.23
2017-07-26T21:21:36.094Z,11.00
2017-07-26T21:24:03.573Z,10.47
2017-07-26T21:26:31.038Z,8.10
2017-07-26T21:28:58.602Z,11.23
2017-07-26T21:31:26.082Z,14.13
2017-07-26T21:33:53.554Z,17.00
2017-07-26T21:36:21.009Z,10.83
2017-07-26T21:38:48.509Z,13.40
2017-07-26T21:41:16.031Z,13.90
2017-07-26T21:43:43.816Z,20.97
2017-07-26T21:46:11.772Z,30.17
2017-07-26T21:48:39.277Z,20.93
2017-07-26T21:51:06.733Z,19.00
2017-07-26T21:53:34.210Z,20.53
2017-07-26T21:56:01.722Z,24.30
2017-07-26T21:58:29.224Z,22.40
2017-07-26T22:00:56.677Z,20.40
2017-07-26T22:03:24.163Z,19.73
2017-07-26T22:05:51.654Z,18.27
2017-07-26T22:08:19.886Z,15.33
2017-07-26T22:10:47.374Z,21.07
2017-07-26T22:13:14.862Z,19.10
2017-07-26T22:15:42.354Z,17.57
2017-07-26T22:18:09.818Z,14.30
2017-07-26T22:20:38.048Z,19.90
2017-07-26T22:23:06.293Z,18.40
2017-07-26T22:25:33.757Z,17.30
2017-07-26T22:28:01.216Z,18.73
2017-07-26T22:30:28.693Z,27.37
2017-07-26T22:32:56.915Z,13.20
2017-07-26T22:35:24.411Z,15.77
2017-07-26T22:37:51.906Z,18.70
2017-07-26T22:40:19.376Z,18.57
2017-07-26T22:42:46.830Z,19.40
2017-07-26T22:45:14.329Z,18.90
2017-07-26T22:47:41.778Z,17.83
2017-07-26T22:50:09.258Z,17.57
2017-07-26T22:52:36.745Z,25.10
2017-07-26T22:55:04.239Z,14.20
2017-07-26T22:57:31.743Z,24.33
2017-07-26T22:59:59.211Z,18.70
2017-07-26T23:02:27.430Z,12.30
2017-07-26T23:04:54.931Z,15.23
2017-07-26T23:07:22.401Z,25.10
2017-07-26T23:09:50.675Z,17.23
2017-07-26T23:12:18.889Z,20.13
2017-07-26T23:14:46.350Z,17.73
2017-07-26T23:17:13.838Z,13.67
2017-07-26T23:19:41.374Z,14.57
2017-07-26T23:22:08.829Z,21.83
2017-07-26T23:24:36.317Z,13.03
2017-07-26T23:27:03.794Z,12.70
2017-07-26T23:29:31.270Z,16.93
2017-07-26T23:31:58.749Z,14.47
2017-07-26T23:34:26.215Z,12.77
2017-07-26T23:36:53.700Z,15.00
2017-07-26T23:39:21.162Z,18.30
2017-07-26T23:41:48.658Z,17.63
2017-07-26T23:44:16.877Z,15.20
2017-07-26T23:46:44.346Z,17.50
2017-07-26T23:49:11.917Z,14.93
2017-07-26T23:51:39.400Z,17.17
2017-07-26T23:54:06.859Z,14.10
2017-07-26T23:56:34.310Z,13.53
2017-07-26T23:59:01.790Z,12.77
